createdAt,value
2023-03-03T00:03:24.684Z,0.57
2023-03-03T00:05:58.514Z,0.63
2023-03-03T00:08:34.573Z,0.69
2023-03-03T00:11:03.377Z,0.64
2023-03-03T00:13:32.819Z,0.52
2023-03-03T00:16:16.446Z,0.49
2023-03-03T00:18:47.979Z,0.32
2023-03-03T00:21:49.270Z,0.56
2023-03-03T00:24:23.469Z,0.31
2023-03-03T00:26:52.168Z,0.44
2023-03-03T00:29:28.028Z,0.42
2023-03-03T00:31:55.199Z,0.22
2023-03-03T00:34:27.141Z,0.15
2023-03-03T00:36:59.377Z,0.10
2023-03-03T00:39:36.760Z,0.24
2023-03-03T00:42:13.578Z,0.21
2023-03-03T00:44:48.670Z,0.09
2023-03-03T00:47:37.000Z,0.16
2023-03-03T00:50:06.936Z,0.07
2023-03-03T00:52:39.517Z,0.07
2023-03-03T00:55:07.899Z,0.11
2023-03-03T00:57:34.912Z,-0.04
2023-03-03T01:00:01.590Z,0.02
2023-03-03T01:02:28.339Z,-0.08
2023-03-03T01:04:57.944Z,-0.10
2023-03-03T01:07:25.825Z,-0.18
2023-03-03T01:09:52.996Z,-0.21
2023-03-03T01:12:19.760Z,-0.18
2023-03-03T01:14:46.617Z,-0.23
2023-03-03T01:17:13.340Z,-0.30
2023-03-03T01:19:40.027Z,-0.23
2023-03-03T01:22:07.080Z,-0.31
2023-03-03T01:24:33.783Z,-0.39
2023-03-03T01:27:00.540Z,-0.41
2023-03-03T01:29:27.263Z,-0.35
2023-03-03T01:31:54.044Z,-0.35
2023-03-03T01:34:20.889Z,-0.40
2023-03-03T01:36:47.765Z,-0.42
2023-03-03T01:39:15.154Z,-0.37
2023-03-03T01:41:41.971Z,-0.45
2023-03-03T01:44:14.401Z,-0.52
2023-03-03T01:46:52.628Z,-0.38
2023-03-03T01:49:43.108Z,-0.50
2023-03-03T01:52:38.217Z,-0.51
2023-03-03T01:55:11.625Z,-0.50
2023-03-03T01:57:43.341Z,-0.50
2023-03-03T02:00:11.440Z,-0.48
2023-03-03T02:02:39.667Z,-0.35
2023-03-03T02:05:11.353Z,-0.65
2023-03-03T02:07:38.728Z,-0.59
2023-03-03T02:10:07.706Z,-0.55
2023-03-03T02:12:40.512Z,-0.61
2023-03-03T02:15:19.072Z,-0.59
2023-03-03T02:17:48.558Z,-0.65
2023-03-03T02:20:37.170Z,-0.68
2023-03-03T02:23:15.941Z,-0.63
2023-03-03T02:25:52.240Z,-0.71
2023-03-03T02:28:19.061Z,-0.85
2023-03-03T02:30:46.652Z,-0.84
2023-03-03T02:33:13.611Z,-0.95
2023-03-03T02:35:41.942Z,-0.78
2023-03-03T02:38:20.746Z,-0.87
2023-03-03T02:40:52.481Z,-1.03
2023-03-03T02:43:22.904Z,-1.05
2023-03-03T02:48:16.583Z,-1.02
2023-03-03T02:50:43.291Z,-1.03
2023-03-03T02:53:10.039Z,-1.09
2023-03-03T02:55:36.824Z,-1.00
2023-03-03T02:58:04.422Z,-0.95
2023-03-03T03:00:32.561Z,-1.06
2023-03-03T03:02:59.349Z,-0.89
2023-03-03T03:05:26.089Z,-1.07
2023-03-03T03:07:52.871Z,-1.15
2023-03-03T03:10:20.019Z,-1.09
2023-03-03T03:12:46.856Z,-1.02
2023-03-03T03:15:13.709Z,-1.03
2023-03-03T03:17:40.382Z,-1.06
2023-03-03T03:20:07.443Z,-1.17
2023-03-03T03:22:34.621Z,-1.23
2023-03-03T03:25:02.021Z,-1.26
2023-03-03T03:27:28.701Z,-1.35
2023-03-03T03:29:55.425Z,-1.18
2023-03-03T03:32:22.372Z,-1.28
2023-03-03T03:34:49.287Z,-1.13
2023-03-03T03:37:15.938Z,-1.10
2023-03-03T03:39:42.818Z,-1.19
2023-03-03T03:42:10.068Z,-1.22
2023-03-03T03:44:36.752Z,-1.32
2023-03-03T03:47:03.734Z,-1.27
2023-03-03T03:49:30.615Z,-1.32
2023-03-03T03:51:57.765Z,-1.31
2023-03-03T03:54:24.935Z,-1.35
2023-03-03T03:56:52.602Z,-1.38
2023-03-03T03:59:20.192Z,-1.41
2023-03-03T04:01:48.321Z,-1.33
2023-03-03T04:04:16.454Z,-1.47
2023-03-03T04:06:43.219Z,-1.59
2023-03-03T04:09:09.955Z,-1.52
2023-03-03T04:11:39.188Z,-1.52
2023-03-03T04:14:09.214Z,-1.52
2023-03-03T04:16:36.027Z,-1.53
2023-03-03T04:19:02.734Z,-1.47
2023-03-03T04:21:30.535Z,-1.54
2023-03-03T04:23:57.303Z,-1.52
2023-03-03T04:26:24.108Z,-1.59
2023-03-03T04:31:17.314Z,-1.50
2023-03-03T04:33:44.194Z,-1.51
2023-03-03T04:36:11.012Z,-1.57
2023-03-03T04:38:37.722Z,-1.63
2023-03-03T04:41:04.581Z,-1.51
2023-03-03T04:43:32.205Z,-1.61
2023-03-03T04:45:59.000Z,-1.51
2023-03-03T04:48:25.809Z,-1.63
2023-03-03T04:50:52.493Z,-1.64
2023-03-03T04:53:19.189Z,-1.73
2023-03-03T04:55:46.079Z,-1.65
2023-03-03T04:58:13.193Z,-1.65
2023-03-03T05:00:40.246Z,-1.71
2023-03-03T05:03:07.585Z,-1.65
2023-03-03T05:05:34.422Z,-1.74
2023-03-03T05:08:01.088Z,-1.76
2023-03-03T05:10:27.928Z,-1.76
2023-03-03T05:12:54.689Z,-1.79
2023-03-03T05:15:21.456Z,-1.80
2023-03-03T05:17:48.166Z,-1.82
2023-03-03T05:20:15.538Z,-1.75
2023-03-03T05:22:42.225Z,-1.72
2023-03-03T05:25:10.807Z,-1.75
2023-03-03T05:27:37.466Z,-1.84
2023-03-03T05:30:05.141Z,-1.79
2023-03-03T05:32:32.492Z,-1.74
2023-03-03T05:34:59.204Z,-1.78
2023-03-03T05:37:25.967Z,-1.79
2023-03-03T05:39:52.675Z,-1.82
2023-03-03T05:42:20.121Z,-1.81
2023-03-03T05:44:46.977Z,-1.93
2023-03-03T05:47:13.806Z,-1.82
2023-03-03T05:49:40.854Z,-1.71
2023-03-03T05:52:09.211Z,-1.77
2023-03-03T05:54:36.044Z,-1.78
2023-03-03T05:57:03.416Z,-1.87
2023-03-03T05:59:30.389Z,-1.76
2023-03-03T06:01:57.343Z,-1.86
2023-03-03T06:04:24.220Z,-1.87
2023-03-03T06:09:20.347Z,-1.82
2023-03-03T06:11:47.171Z,-1.73
2023-03-03T06:14:13.968Z,-1.74
2023-03-03T06:16:40.824Z,-1.68
2023-03-03T06:19:07.905Z,-1.70
2023-03-03T06:21:34.566Z,-1.76
2023-03-03T06:24:01.628Z,-1.69
2023-03-03T06:26:28.489Z,-1.68
2023-03-03T06:28:56.023Z,-1.72
2023-03-03T06:31:23.703Z,-1.74
2023-03-03T06:33:52.309Z,-1.75
2023-03-03T06:36:19.850Z,-1.65
2023-03-03T06:38:47.208Z,-1.50
2023-03-03T06:41:13.969Z,-1.55
2023-03-03T06:43:40.753Z,-1.48
2023-03-03T06:46:07.507Z,-1.50
2023-03-03T06:48:34.312Z,-1.53
2023-03-03T06:51:03.316Z,-1.45
2023-03-03T06:53:33.368Z,-1.38
2023-03-03T06:56:02.053Z,-1.34
2023-03-03T06:58:30.255Z,-1.27
2023-03-03T07:01:01.811Z,-1.14
2023-03-03T07:03:34.630Z,-1.06
2023-03-03T07:06:03.543Z,-1.06
2023-03-03T07:08:32.619Z,-1.05
2023-03-03T07:11:08.333Z,-0.99
2023-03-03T07:13:46.728Z,-0.99
2023-03-03T07:16:15.942Z,-1.04
2023-03-03T07:18:52.364Z,-0.94
2023-03-03T07:21:31.021Z,-0.97
2023-03-03T07:24:00.567Z,-0.77
2023-03-03T07:26:34.919Z,-0.72
2023-03-03T07:29:28.372Z,-0.64
2023-03-03T07:31:58.336Z,-0.59
2023-03-03T07:34:42.998Z,-0.53
2023-03-03T07:37:20.497Z,-0.47
2023-03-03T07:42:33.895Z,-0.31
2023-03-03T07:45:01.976Z,-0.05
2023-03-03T07:47:36.191Z,0.00
2023-03-03T07:50:31.220Z,0.08
2023-03-03T07:53:01.821Z,0.22
2023-03-03T07:55:28.466Z,0.27
2023-03-03T07:58:00.013Z,0.27
2023-03-03T08:00:26.785Z,0.49
2023-03-03T08:03:21.074Z,0.58
2023-03-03T08:05:49.783Z,0.64
2023-03-03T08:08:45.338Z,0.97
2023-03-03T08:11:12.092Z,1.05
2023-03-03T08:13:42.215Z,1.04
2023-03-03T08:16:12.526Z,1.18
2023-03-03T08:21:28.227Z,1.31
2023-03-03T08:23:55.770Z,1.77
2023-03-03T08:26:23.561Z,2.25
2023-03-03T08:31:27.975Z,2.65
2023-03-03T08:34:04.774Z,2.80
2023-03-03T08:36:33.673Z,2.91
2023-03-03T08:39:01.608Z,2.97
2023-03-03T08:41:28.364Z,3.09
2023-03-03T08:43:55.315Z,3.36
2023-03-03T08:46:23.458Z,3.47
2023-03-03T08:51:17.119Z,3.50
2023-03-03T08:53:43.977Z,3.47
2023-03-03T08:56:10.728Z,3.38
2023-03-03T08:58:37.867Z,3.44
2023-03-03T09:01:05.258Z,3.64
2023-03-03T09:03:32.100Z,3.90
2023-03-03T09:05:59.512Z,3.92
2023-03-03T09:08:26.162Z,4.19
2023-03-03T09:10:52.881Z,4.41
2023-03-03T09:13:20.659Z,4.16
2023-03-03T09:15:49.214Z,4.67
2023-03-03T09:18:26.626Z,4.66
2023-03-03T09:20:54.428Z,4.44
2023-03-03T09:23:23.940Z,4.37
2023-03-03T09:25:52.398Z,4.24
2023-03-03T09:28:30.953Z,4.53
2023-03-03T09:31:03.363Z,5.14
2023-03-03T09:33:45.427Z,5.34
2023-03-03T09:36:35.657Z,4.74
2023-03-03T09:39:23.724Z,4.83
2023-03-03T09:41:51.666Z,5.35
2023-03-03T09:44:27.287Z,4.60
2023-03-03T09:47:12.229Z,5.19
2023-03-03T09:52:52.410Z,5.30
2023-03-03T09:55:52.789Z,5.54
2023-03-03T09:58:27.620Z,5.73
2023-03-03T10:01:00.346Z,6.17
2023-03-03T10:03:46.984Z,6.32
2023-03-03T10:06:29.302Z,5.72
2023-03-03T10:09:06.867Z,6.00
2023-03-03T10:11:45.418Z,6.51
2023-03-03T10:14:21.151Z,6.60
2023-03-03T10:16:52.505Z,6.69
2023-03-03T10:19:38.046Z,6.51
2023-03-03T10:22:24.347Z,6.49
2023-03-03T10:24:52.767Z,6.51
2023-03-03T10:27:44.244Z,6.83
2023-03-03T10:30:40.851Z,6.75
2023-03-03T10:33:52.741Z,6.81
2023-03-03T10:36:35.462Z,7.26
2023-03-03T10:39:36.656Z,7.18
2023-03-03T10:42:24.913Z,7.74
2023-03-03T10:44:52.487Z,7.80
2023-03-03T10:47:40.795Z,7.88
2023-03-03T10:50:32.482Z,7.99
2023-03-03T10:53:08.233Z,8.10
2023-03-03T10:55:52.606Z,7.79
2023-03-03T10:58:52.583Z,8.19
2023-03-03T11:01:52.439Z,8.37
2023-03-03T11:04:38.107Z,8.38
2023-03-03T11:07:18.026Z,8.57
2023-03-03T11:09:52.516Z,8.82
2023-03-03T11:12:22.867Z,7.94
2023-03-03T11:14:52.628Z,9.00
2023-03-03T11:20:37.876Z,9.91
2023-03-03T11:23:22.647Z,9.39
2023-03-03T11:25:53.374Z,9.25
2023-03-03T11:28:52.441Z,9.37
2023-03-03T11:31:34.563Z,8.92
2023-03-03T11:34:12.768Z,8.81
2023-03-03T11:36:52.675Z,10.20
2023-03-03T11:39:28.196Z,10.29
2023-03-03T11:42:11.004Z,10.12
2023-03-03T11:47:31.397Z,11.37
2023-03-03T11:50:09.200Z,11.42
2023-03-03T11:52:51.603Z,13.41
2023-03-03T11:55:25.105Z,12.16
2023-03-03T11:57:57.601Z,12.33
2023-03-03T12:00:52.552Z,14.41
2023-03-03T12:03:32.395Z,14.42
2023-03-03T12:06:29.436Z,14.72
2023-03-03T12:09:08.015Z,14.39
2023-03-03T12:11:54.151Z,14.78
2023-03-03T12:14:42.143Z,15.36
2023-03-03T12:17:31.278Z,15.47
2023-03-03T12:20:15.275Z,16.14
2023-03-03T12:23:05.790Z,14.75
2023-03-03T12:25:38.812Z,17.09
2023-03-03T12:28:32.327Z,17.27
2023-03-03T12:31:22.998Z,16.93
2023-03-03T12:33:52.512Z,15.53
2023-03-03T12:36:37.660Z,15.09
2023-03-03T12:39:34.795Z,14.69
2023-03-03T12:42:20.649Z,15.71
2023-03-03T12:44:53.054Z,16.33
2023-03-03T12:47:30.345Z,16.76
2023-03-03T12:50:18.405Z,15.30
2023-03-03T12:52:56.919Z,16.84
2023-03-03T12:55:52.579Z,17.08
2023-03-03T12:58:26.675Z,18.60
2023-03-03T13:01:17.902Z,15.96
2023-03-03T13:03:56.131Z,18.77
2023-03-03T13:06:31.155Z,18.88
2023-03-03T13:09:35.198Z,18.26
2023-03-03T13:12:40.280Z,16.41
2023-03-03T13:15:16.095Z,17.00
2023-03-03T13:17:52.712Z,18.24
2023-03-03T13:20:47.323Z,17.87
2023-03-03T13:23:32.309Z,17.62
2023-03-03T13:26:06.193Z,16.85
2023-03-03T13:28:52.665Z,17.18
2023-03-03T13:31:22.615Z,18.46
2023-03-03T13:33:55.227Z,20.50
2023-03-03T13:39:26.148Z,17.65
2023-03-03T13:42:19.927Z,17.72
2023-03-03T13:50:38.419Z,16.70
2023-03-03T13:53:18.182Z,16.30
2023-03-03T13:55:51.681Z,17.46
2023-03-03T13:58:45.149Z,16.63
2023-03-03T14:01:19.007Z,17.45
2023-03-03T14:03:52.732Z,16.04
2023-03-03T14:06:23.491Z,17.48
2023-03-03T14:08:52.747Z,17.20
2023-03-03T14:11:52.633Z,16.77
2023-03-03T14:14:35.902Z,16.11
2023-03-03T14:17:09.716Z,15.94
2023-03-03T14:19:52.815Z,16.96
2023-03-03T14:22:30.396Z,17.53
2023-03-03T14:25:07.948Z,17.37
2023-03-03T14:27:49.105Z,14.89
2023-03-03T14:30:25.028Z,16.40
2023-03-03T14:32:52.651Z,15.54
2023-03-03T14:35:21.448Z,15.81
2023-03-03T14:40:22.449Z,16.63
2023-03-03T14:42:52.634Z,16.58
2023-03-03T14:45:31.480Z,16.13
2023-03-03T14:47:59.828Z,15.34
2023-03-03T14:50:38.907Z,14.42
2023-03-03T14:53:12.833Z,14.96
2023-03-03T14:55:42.723Z,14.63
2023-03-03T14:58:26.354Z,15.05
2023-03-03T15:01:16.778Z,13.27
2023-03-03T15:03:52.748Z,16.10
2023-03-03T15:06:44.765Z,15.55
2023-03-03T15:09:38.444Z,15.60
2023-03-03T15:12:36.642Z,15.37
2023-03-03T15:15:06.215Z,16.41
2023-03-03T15:17:52.622Z,16.68
2023-03-03T15:20:46.213Z,16.48
2023-03-03T15:23:48.134Z,15.43
2023-03-03T15:26:33.446Z,16.11
2023-03-03T15:29:25.101Z,15.41
2023-03-03T15:31:51.999Z,15.48
2023-03-03T15:34:33.685Z,14.86
2023-03-03T15:37:24.769Z,15.16
2023-03-03T15:39:51.767Z,16.19
2023-03-03T15:42:35.894Z,14.91
2023-03-03T15:45:08.864Z,15.28
2023-03-03T15:47:38.716Z,15.52
2023-03-03T15:50:36.489Z,15.64
2023-03-03T15:53:15.051Z,14.40
2023-03-03T15:55:52.745Z,12.80
2023-03-03T15:58:19.452Z,12.58
2023-03-03T16:00:52.710Z,11.97
2023-03-03T16:03:36.555Z,11.99
2023-03-03T16:06:13.226Z,11.96
2023-03-03T16:08:52.789Z,11.69
2023-03-03T16:11:28.897Z,11.43
2023-03-03T16:14:22.463Z,11.03
2023-03-03T16:16:52.938Z,10.98
2023-03-03T16:19:38.012Z,10.72
2023-03-03T16:22:41.271Z,10.60
2023-03-03T16:25:23.418Z,10.88
2023-03-03T16:27:56.329Z,10.40
2023-03-03T16:30:32.938Z,10.34
2023-03-03T16:33:18.402Z,9.92
2023-03-03T16:38:37.544Z,9.08
2023-03-03T16:41:12.957Z,8.96
2023-03-03T16:43:48.789Z,9.13
2023-03-03T16:46:29.954Z,8.79
2023-03-03T16:49:27.542Z,8.54
2023-03-03T16:52:12.619Z,8.37
2023-03-03T16:57:23.818Z,8.05
2023-03-03T16:59:51.672Z,7.94
2023-03-03T17:02:48.596Z,7.78
2023-03-03T17:05:53.181Z,7.64
2023-03-03T17:08:36.246Z,7.60
2023-03-03T17:11:09.734Z,7.58
2023-03-03T17:13:52.690Z,7.50
2023-03-03T17:16:22.107Z,7.38
2023-03-03T17:18:51.758Z,7.33
2023-03-03T17:21:52.986Z,7.29
2023-03-03T17:24:48.770Z,7.11
2023-03-03T17:27:25.109Z,6.95
2023-03-03T17:29:56.975Z,6.89
2023-03-03T17:32:49.839Z,6.75
2023-03-03T17:35:19.397Z,6.64
2023-03-03T17:37:52.670Z,6.38
2023-03-03T17:40:37.390Z,6.37
2023-03-03T17:43:12.498Z,6.29
2023-03-03T17:45:43.400Z,6.36
2023-03-03T17:51:52.971Z,6.17
2023-03-03T17:54:49.199Z,6.27
2023-03-03T17:57:25.028Z,6.23
2023-03-03T17:59:53.266Z,6.08
2023-03-03T18:02:25.961Z,6.01
2023-03-03T18:05:16.211Z,5.98
2023-03-03T18:07:52.787Z,6.06
2023-03-03T18:10:52.678Z,5.99
2023-03-03T18:13:39.616Z,5.82
2023-03-03T18:16:12.696Z,5.78
2023-03-03T18:18:39.654Z,5.69
2023-03-03T18:21:14.769Z,5.66
2023-03-03T18:23:44.159Z,5.51
2023-03-03T18:26:34.689Z,5.49
2023-03-03T18:29:21.738Z,5.19
2023-03-03T18:31:51.822Z,5.18
2023-03-03T18:34:21.566Z,5.10
2023-03-03T18:36:53.024Z,4.93
2023-03-03T18:39:45.862Z,4.85
2023-03-03T18:42:15.985Z,4.76
2023-03-03T18:44:48.112Z,4.66
2023-03-03T18:47:17.334Z,4.54
2023-03-03T18:49:54.137Z,4.45
2023-03-03T18:52:27.569Z,4.39
2023-03-03T18:55:12.221Z,4.51
2023-03-03T18:57:39.780Z,4.32
2023-03-03T19:00:22.340Z,4.24
2023-03-03T19:02:53.040Z,4.23
2023-03-03T19:05:50.224Z,4.16
2023-03-03T19:08:25.161Z,4.10
2023-03-03T19:10:52.717Z,3.96
2023-03-03T19:13:35.002Z,3.79
2023-03-03T19:16:07.061Z,3.74
2023-03-03T19:18:48.073Z,3.86
2023-03-03T19:21:43.244Z,3.68
2023-03-03T19:24:34.140Z,3.69
2023-03-03T19:27:00.988Z,3.82
2023-03-03T19:29:46.399Z,3.52
2023-03-03T19:32:31.176Z,3.45
2023-03-03T19:35:26.100Z,3.37
2023-03-03T19:38:19.366Z,3.44
2023-03-03T19:40:51.863Z,3.24
2023-03-03T19:43:27.516Z,3.34
2023-03-03T19:46:31.112Z,3.15
2023-03-03T19:49:35.682Z,3.12
2023-03-03T19:52:19.012Z,3.00
2023-03-03T19:57:34.956Z,2.96
2023-03-03T20:00:16.512Z,2.91
2023-03-03T20:02:56.452Z,2.87
2023-03-03T20:05:52.734Z,2.91
2023-03-03T20:08:25.534Z,2.82
2023-03-03T20:11:17.815Z,2.68
2023-03-03T20:13:53.050Z,2.60
2023-03-03T20:16:28.981Z,2.64
2023-03-03T20:19:26.423Z,2.63
2023-03-03T20:22:22.178Z,2.62
2023-03-03T20:24:52.817Z,2.47
2023-03-03T20:27:46.450Z,2.49
2023-03-03T20:30:47.761Z,2.34
2023-03-03T20:33:36.987Z,2.28
2023-03-03T20:36:25.145Z,2.17
2023-03-03T20:38:52.844Z,2.18
2023-03-03T20:41:52.746Z,2.10
2023-03-03T20:47:43.705Z,2.08
2023-03-03T20:50:15.739Z,1.89
2023-03-03T20:52:52.874Z,1.82
2023-03-03T20:55:25.717Z,1.83
2023-03-03T20:57:56.057Z,1.85
2023-03-03T21:00:30.086Z,1.80
2023-03-03T21:03:14.826Z,1.62
2023-03-03T21:05:52.798Z,1.55
2023-03-03T21:08:19.552Z,1.55
2023-03-03T21:10:51.890Z,1.54
2023-03-03T21:13:32.672Z,1.42
2023-03-03T21:16:34.108Z,1.37
2023-03-03T21:19:11.409Z,1.51
2023-03-03T21:21:40.238Z,1.34
2023-03-03T21:24:08.492Z,1.30
2023-03-03T21:26:52.766Z,1.33
2023-03-03T21:29:27.112Z,1.26
2023-03-03T21:32:08.659Z,1.22
2023-03-03T21:34:36.798Z,1.02
2023-03-03T21:37:06.644Z,1.18
2023-03-03T21:39:39.367Z,1.07
2023-03-03T21:42:22.512Z,1.01
2023-03-03T21:47:33.508Z,0.91
2023-03-03T21:50:04.016Z,0.82
2023-03-03T21:52:34.562Z,0.66
2023-03-03T21:55:03.839Z,0.63
2023-03-03T21:57:32.859Z,0.57
2023-03-03T21:59:59.599Z,0.53
2023-03-03T22:02:26.340Z,0.51
2023-03-03T22:04:53.358Z,0.48
2023-03-03T22:07:20.088Z,0.55
2023-03-03T22:09:46.754Z,0.57
2023-03-03T22:12:13.738Z,0.51
2023-03-03T22:14:40.922Z,0.43
2023-03-03T22:17:07.958Z,0.34
2023-03-03T22:19:39.533Z,0.30
2023-03-03T22:22:09.740Z,0.26
2023-03-03T22:24:36.477Z,0.27
2023-03-03T22:27:04.027Z,0.14
2023-03-03T22:29:30.963Z,0.25
2023-03-03T22:31:57.683Z,0.14
2023-03-03T22:34:24.882Z,0.02
2023-03-03T22:39:17.168Z,0.01
2023-03-03T22:41:44.271Z,-0.04
2023-03-03T22:44:11.010Z,-0.14
2023-03-03T22:46:37.891Z,-0.09
2023-03-03T22:49:06.051Z,-0.09
2023-03-03T22:51:33.127Z,-0.09
2023-03-03T22:54:00.000Z,-0.12
2023-03-03T22:56:29.776Z,-0.22
2023-03-03T22:58:56.941Z,-0.24
2023-03-03T23:01:24.388Z,-0.20
2023-03-03T23:06:17.506Z,-0.30
2023-03-03T23:08:44.427Z,-0.37
2023-03-03T23:11:11.325Z,-0.40
2023-03-03T23:13:38.117Z,-0.48
2023-03-03T23:16:05.216Z,-0.49
2023-03-03T23:18:32.382Z,-0.51
2023-03-03T23:20:59.114Z,-0.52
2023-03-03T23:23:25.902Z,-0.65
2023-03-03T23:25:52.973Z,-0.71
2023-03-03T23:28:19.727Z,-0.77
2023-03-03T23:30:46.848Z,-0.88
2023-03-03T23:33:13.490Z,-0.89
2023-03-03T23:35:41.414Z,-0.91
2023-03-03T23:38:08.332Z,-0.96
2023-03-03T23:40:35.075Z,-0.98
2023-03-03T23:43:01.765Z,-0.99
2023-03-03T23:45:28.575Z,-1.07
2023-03-03T23:47:55.279Z,-1.12
2023-03-03T23:50:21.962Z,-1.06
2023-03-03T23:52:50.050Z,-1.07
2023-03-03T23:55:16.755Z,-1.17
2023-03-03T23:57:46.895Z,-1.18
